sensor_id;sensor_type;location;lat;lon;timestamp;temperature;humidity
20398;DHT22;10358;49.590;11.030;2023-06-22T00:02:06;20.00;99.90
20398;DHT22;10358;49.590;11.030;2023-06-22T00:04:31;20.10;99.90
20398;DHT22;10358;49.590;11.030;2023-06-22T00:06:57;20.10;99.90
20398;DHT22;10358;49.590;11.030;2023-06-22T00:09:22;20.00;99.90
20398;DHT22;10358;49.590;11.030;2023-06-22T00:11:48;19.90;99.90
20398;DHT22;10358;49.590;11.030;2023-06-22T00:14:13;19.90;99.90
20398;DHT22;10358;49.590;11.030;2023-06-22T00:16:39;19.90;99.90
20398;DHT22;10358;49.590;11.030;2023-06-22T00:19:04;19.80;99.90
20398;DHT22;10358;49.590;11.030;2023-06-22T00:21:30;19.70;99.90
20398;DHT22;10358;49.590;11.030;2023-06-22T00:23:56;19.70;99.90
20398;DHT22;10358;49.590;11.030;2023-06-22T00:26:22;19.70;99.90
20398;DHT22;10358;49.590;11.030;2023-06-22T00:28:48;19.80;99.90
20398;DHT22;10358;49.590;11.030;2023-06-22T00:31:14;19.80;99.90
20398;DHT22;10358;49.590;11.030;2023-06-22T00:33:39;19.80;99.90
20398;DHT22;10358;49.590;11.030;2023-06-22T00:36:05;19.80;99.90
20398;DHT22;10358;49.590;11.030;2023-06-22T00:38:33;19.80;99.90
20398;DHT22;10358;49.590;11.030;2023-06-22T00:40:58;19.80;99.90
20398;DHT22;10358;49.590;11.030;2023-06-22T00:43:24;19.70;99.90
20398;DHT22;10358;49.590;11.030;2023-06-22T00:45:49;19.70;99.90
20398;DHT22;10358;49.590;11.030;2023-06-22T00:48:15;19.60;99.90
20398;DHT22;10358;49.590;11.030;2023-06-22T00:50:41;19.60;99.90
20398;DHT22;10358;49.590;11.030;2023-06-22T00:53:08;19.60;99.90
20398;DHT22;10358;49.590;11.030;2023-06-22T00:55:36;19.60;99.90
20398;DHT22;10358;49.590;11.030;2023-06-22T00:58:07;19.60;99.90
20398;DHT22;10358;49.590;11.030;2023-06-22T01:00:36;19.60;99.90
20398;DHT22;10358;49.590;11.030;2023-06-22T01:03:02;19.50;99.90
20398;DHT22;10358;49.590;11.030;2023-06-22T01:05:28;19.50;99.90
20398;DHT22;10358;49.590;11.030;2023-06-22T01:13:45;19.40;99.90
20398;DHT22;10358;49.590;11.030;2023-06-22T01:16:52;19.40;99.90
20398;DHT22;10358;49.590;11.030;2023-06-22T01:19:37;19.40;99.90
20398;DHT22;10358;49.590;11.030;2023-06-22T01:22:05;19.40;99.90
20398;DHT22;10358;49.590;11.030;2023-06-22T01:24:57;19.30;99.90
20398;DHT22;10358;49.590;11.030;2023-06-22T01:27:56;19.20;99.90
20398;DHT22;10358;49.590;11.030;2023-06-22T01:30:27;19.20;99.90
20398;DHT22;10358;49.590;11.030;2023-06-22T01:32:54;19.10;99.90
20398;DHT22;10358;49.590;11.030;2023-06-22T01:35:21;19.10;99.90
20398;DHT22;10358;49.590;11.030;2023-06-22T01:37:47;19.00;99.90
20398;DHT22;10358;49.590;11.030;2023-06-22T01:40:15;19.00;99.90
20398;DHT22;10358;49.590;11.030;2023-06-22T01:42:41;19.00;99.90
20398;DHT22;10358;49.590;11.030;2023-06-22T01:45:09;18.90;99.90
20398;DHT22;10358;49.590;11.030;2023-06-22T01:47:35;19.00;99.90
20398;DHT22;10358;49.590;11.030;2023-06-22T01:50:01;19.00;99.90
20398;DHT22;10358;49.590;11.030;2023-06-22T01:52:27;18.90;99.90
20398;DHT22;10358;49.590;11.030;2023-06-22T01:54:52;18.90;99.90
20398;DHT22;10358;49.590;11.030;2023-06-22T01:57:18;18.90;99.90
20398;DHT22;10358;49.590;11.030;2023-06-22T02:02:11;18.70;99.90
20398;DHT22;10358;49.590;11.030;2023-06-22T02:04:54;18.70;99.90
20398;DHT22;10358;49.590;11.030;2023-06-22T02:07:23;18.60;99.90
20398;DHT22;10358;49.590;11.030;2023-06-22T02:09:51;18.60;99.90
20398;DHT22;10358;49.590;11.030;2023-06-22T02:12:22;18.60;99.90
20398;DHT22;10358;49.590;11.030;2023-06-22T02:14:48;18.50;99.90
20398;DHT22;10358;49.590;11.030;2023-06-22T02:17:16;18.50;99.90
20398;DHT22;10358;49.590;11.030;2023-06-22T02:19:42;18.60;99.90
20398;DHT22;10358;49.590;11.030;2023-06-22T02:22:08;18.60;99.90
20398;DHT22;10358;49.590;11.030;2023-06-22T02:24:33;18.70;99.90
20398;DHT22;10358;49.590;11.030;2023-06-22T02:27:00;18.70;99.90
20398;DHT22;10358;49.590;11.030;2023-06-22T02:29:26;18.60;99.90
20398;DHT22;10358;49.590;11.030;2023-06-22T02:31:55;18.60;99.90
20398;DHT22;10358;49.590;11.030;2023-06-22T02:34:21;18.50;99.90
20398;DHT22;10358;49.590;11.030;2023-06-22T02:36:48;18.50;99.90
20398;DHT22;10358;49.590;11.030;2023-06-22T02:39:21;18.60;99.90
20398;DHT22;10358;49.590;11.030;2023-06-22T02:41:48;18.60;99.90
20398;DHT22;10358;49.590;11.030;2023-06-22T02:44:14;18.70;99.90
20398;DHT22;10358;49.590;11.030;2023-06-22T02:46:40;18.50;99.90
20398;DHT22;10358;49.590;11.030;2023-06-22T02:49:06;18.20;99.90
20398;DHT22;10358;49.590;11.030;2023-06-22T02:51:33;18.20;99.90
20398;DHT22;10358;49.590;11.030;2023-06-22T02:53:59;18.30;99.90
20398;DHT22;10358;49.590;11.030;2023-06-22T02:56:25;18.40;99.90
20398;DHT22;10358;49.590;11.030;2023-06-22T02:58:51;18.50;99.90
20398;DHT22;10358;49.590;11.030;2023-06-22T03:01:16;18.40;99.90
20398;DHT22;10358;49.590;11.030;2023-06-22T03:03:42;18.50;99.90
20398;DHT22;10358;49.590;11.030;2023-06-22T03:06:08;18.50;99.90
20398;DHT22;10358;49.590;11.030;2023-06-22T03:08:33;18.50;99.90
20398;DHT22;10358;49.590;11.030;2023-06-22T03:10:59;18.50;99.90
20398;DHT22;10358;49.590;11.030;2023-06-22T03:13:25;18.50;99.90
20398;DHT22;10358;49.590;11.030;2023-06-22T03:15:50;18.50;99.90
20398;DHT22;10358;49.590;11.030;2023-06-22T03:18:16;18.50;99.90
20398;DHT22;10358;49.590;11.030;2023-06-22T03:20:42;18.50;99.90
20398;DHT22;10358;49.590;11.030;2023-06-22T03:23:07;18.50;99.90
20398;DHT22;10358;49.590;11.030;2023-06-22T03:25:34;18.50;99.90
20398;DHT22;10358;49.590;11.030;2023-06-22T03:28:00;18.50;99.90
20398;DHT22;10358;49.590;11.030;2023-06-22T03:30:26;18.60;99.90
20398;DHT22;10358;49.590;11.030;2023-06-22T03:32:51;18.60;99.90
20398;DHT22;10358;49.590;11.030;2023-06-22T03:35:17;18.60;99.90
20398;DHT22;10358;49.590;11.030;2023-06-22T03:37:42;18.80;99.90
20398;DHT22;10358;49.590;11.030;2023-06-22T03:40:08;18.80;99.90
20398;DHT22;10358;49.590;11.030;2023-06-22T03:42:34;18.80;99.90
20398;DHT22;10358;49.590;11.030;2023-06-22T03:45:03;18.80;99.90
20398;DHT22;10358;49.590;11.030;2023-06-22T03:47:29;18.90;99.90
20398;DHT22;10358;49.590;11.030;2023-06-22T03:49:55;19.00;99.90
20398;DHT22;10358;49.590;11.030;2023-06-22T03:52:21;19.00;99.90
20398;DHT22;10358;49.590;11.030;2023-06-22T03:54:47;19.00;99.90
20398;DHT22;10358;49.590;11.030;2023-06-22T03:57:13;19.00;99.90
20398;DHT22;10358;49.590;11.030;2023-06-22T03:59:39;19.10;99.90
20398;DHT22;10358;49.590;11.030;2023-06-22T04:02:04;19.10;99.90
20398;DHT22;10358;49.590;11.030;2023-06-22T04:04:30;19.10;99.90
20398;DHT22;10358;49.590;11.030;2023-06-22T04:06:55;19.20;99.90
20398;DHT22;10358;49.590;11.030;2023-06-22T04:09:21;19.20;99.90
20398;DHT22;10358;49.590;11.030;2023-06-22T04:11:47;19.30;99.90
20398;DHT22;10358;49.590;11.030;2023-06-22T04:14:12;19.30;99.90
20398;DHT22;10358;49.590;11.030;2023-06-22T04:16:38;19.30;99.90
20398;DHT22;10358;49.590;11.030;2023-06-22T04:19:03;19.30;99.90
20398;DHT22;10358;49.590;11.030;2023-06-22T04:21:29;19.30;99.90
20398;DHT22;10358;49.590;11.030;2023-06-22T04:23:54;19.40;99.90
20398;DHT22;10358;49.590;11.030;2023-06-22T04:26:20;19.40;99.90
20398;DHT22;10358;49.590;11.030;2023-06-22T04:28:48;19.50;99.90
20398;DHT22;10358;49.590;11.030;2023-06-22T04:31:17;19.60;99.90
20398;DHT22;10358;49.590;11.030;2023-06-22T04:33:44;19.60;99.90
20398;DHT22;10358;49.590;11.030;2023-06-22T04:36:10;19.70;99.90
20398;DHT22;10358;49.590;11.030;2023-06-22T04:38:39;19.70;99.90
20398;DHT22;10358;49.590;11.030;2023-06-22T04:41:04;19.80;99.90
20398;DHT22;10358;49.590;11.030;2023-06-22T04:43:30;19.80;99.90
20398;DHT22;10358;49.590;11.030;2023-06-22T04:45:56;19.90;99.90
20398;DHT22;10358;49.590;11.030;2023-06-22T04:48:29;20.00;99.90
20398;DHT22;10358;49.590;11.030;2023-06-22T04:50:59;20.00;99.90
20398;DHT22;10358;49.590;11.030;2023-06-22T04:53:28;20.00;99.90
20398;DHT22;10358;49.590;11.030;2023-06-22T04:55:55;20.20;99.90
20398;DHT22;10358;49.590;11.030;2023-06-22T04:58:20;20.20;99.90
20398;DHT22;10358;49.590;11.030;2023-06-22T05:00:47;20.30;99.90
20398;DHT22;10358;49.590;11.030;2023-06-22T05:03:12;20.40;99.90
20398;DHT22;10358;49.590;11.030;2023-06-22T05:05:38;20.50;99.90
20398;DHT22;10358;49.590;11.030;2023-06-22T05:08:04;20.60;99.90
20398;DHT22;10358;49.590;11.030;2023-06-22T05:10:32;20.70;99.90
20398;DHT22;10358;49.590;11.030;2023-06-22T05:12:58;20.70;99.90
20398;DHT22;10358;49.590;11.030;2023-06-22T05:15:24;20.80;99.90
20398;DHT22;10358;49.590;11.030;2023-06-22T05:17:53;20.90;99.90
20398;DHT22;10358;49.590;11.030;2023-06-22T05:20:19;20.90;99.90
20398;DHT22;10358;49.590;11.030;2023-06-22T05:22:44;21.00;99.90
20398;DHT22;10358;49.590;11.030;2023-06-22T05:25:11;21.10;99.90
20398;DHT22;10358;49.590;11.030;2023-06-22T05:27:37;21.20;99.90
20398;DHT22;10358;49.590;11.030;2023-06-22T05:30:08;21.30;99.90
20398;DHT22;10358;49.590;11.030;2023-06-22T05:32:35;21.40;99.90
20398;DHT22;10358;49.590;11.030;2023-06-22T05:35:01;21.50;99.90
20398;DHT22;10358;49.590;11.030;2023-06-22T05:37:28;21.60;99.90
20398;DHT22;10358;49.590;11.030;2023-06-22T05:39:54;21.70;99.90
20398;DHT22;10358;49.590;11.030;2023-06-22T05:42:21;21.80;99.90
20398;DHT22;10358;49.590;11.030;2023-06-22T05:44:46;21.90;99.90
20398;DHT22;10358;49.590;11.030;2023-06-22T05:47:12;22.00;99.90
20398;DHT22;10358;49.590;11.030;2023-06-22T05:49:38;22.10;99.90
20398;DHT22;10358;49.590;11.030;2023-06-22T05:52:04;22.20;99.90
20398;DHT22;10358;49.590;11.030;2023-06-22T05:54:30;22.30;99.90
20398;DHT22;10358;49.590;11.030;2023-06-22T05:56:55;22.40;99.90
20398;DHT22;10358;49.590;11.030;2023-06-22T05:59:21;22.50;99.90
20398;DHT22;10358;49.590;11.030;2023-06-22T06:01:47;22.60;99.90
20398;DHT22;10358;49.590;11.030;2023-06-22T06:04:18;22.70;99.90
20398;DHT22;10358;49.590;11.030;2023-06-22T06:06:44;22.80;99.90
20398;DHT22;10358;49.590;11.030;2023-06-22T06:09:10;22.90;99.90
20398;DHT22;10358;49.590;11.030;2023-06-22T06:11:37;23.00;99.90
20398;DHT22;10358;49.590;11.030;2023-06-22T06:14:02;23.10;99.90
20398;DHT22;10358;49.590;11.030;2023-06-22T06:16:28;23.20;99.90
20398;DHT22;10358;49.590;11.030;2023-06-22T06:18:53;23.30;99.90
20398;DHT22;10358;49.590;11.030;2023-06-22T06:21:21;23.30;99.90
20398;DHT22;10358;49.590;11.030;2023-06-22T06:23:47;23.40;99.90
20398;DHT22;10358;49.590;11.030;2023-06-22T06:26:12;23.50;99.90
20398;DHT22;10358;49.590;11.030;2023-06-22T06:28:38;23.60;99.90
20398;DHT22;10358;49.590;11.030;2023-06-22T06:31:04;23.70;99.90
20398;DHT22;10358;49.590;11.030;2023-06-22T06:33:32;23.80;99.90
20398;DHT22;10358;49.590;11.030;2023-06-22T06:35:58;23.80;99.90
20398;DHT22;10358;49.590;11.030;2023-06-22T06:38:23;23.90;99.90
20398;DHT22;10358;49.590;11.030;2023-06-22T06:40:49;24.00;99.90
20398;DHT22;10358;49.590;11.030;2023-06-22T06:43:14;24.00;99.90
20398;DHT22;10358;49.590;11.030;2023-06-22T06:45:40;24.10;99.90
20398;DHT22;10358;49.590;11.030;2023-06-22T06:48:06;24.20;99.90
20398;DHT22;10358;49.590;11.030;2023-06-22T06:50:31;24.20;99.90
20398;DHT22;10358;49.590;11.030;2023-06-22T06:52:57;24.30;99.90
20398;DHT22;10358;49.590;11.030;2023-06-22T06:55:24;24.40;99.90
20398;DHT22;10358;49.590;11.030;2023-06-22T06:57:50;24.40;99.90
20398;DHT22;10358;49.590;11.030;2023-06-22T07:00:18;24.50;99.90
20398;DHT22;10358;49.590;11.030;2023-06-22T07:02:44;24.60;99.90
20398;DHT22;10358;49.590;11.030;2023-06-22T07:05:11;24.60;99.90
20398;DHT22;10358;49.590;11.030;2023-06-22T07:07:37;24.70;99.90
20398;DHT22;10358;49.590;11.030;2023-06-22T07:10:07;24.70;99.90
20398;DHT22;10358;49.590;11.030;2023-06-22T07:12:33;24.80;99.90
20398;DHT22;10358;49.590;11.030;2023-06-22T07:15:07;24.90;99.90
20398;DHT22;10358;49.590;11.030;2023-06-22T07:17:33;24.90;99.90
20398;DHT22;10358;49.590;11.030;2023-06-22T07:19:59;25.00;99.90
20398;DHT22;10358;49.590;11.030;2023-06-22T07:22:25;25.10;99.90
20398;DHT22;10358;49.590;11.030;2023-06-22T07:24:50;25.20;99.90
20398;DHT22;10358;49.590;11.030;2023-06-22T07:27:16;25.30;99.90
20398;DHT22;10358;49.590;11.030;2023-06-22T07:29:45;25.30;99.90
20398;DHT22;10358;49.590;11.030;2023-06-22T07:32:11;25.40;99.90
20398;DHT22;10358;49.590;11.030;2023-06-22T07:34:36;25.50;99.90
20398;DHT22;10358;49.590;11.030;2023-06-22T07:37:02;25.60;99.90
20398;DHT22;10358;49.590;11.030;2023-06-22T07:39:28;25.70;99.90
20398;DHT22;10358;49.590;11.030;2023-06-22T07:41:54;25.70;99.90
20398;DHT22;10358;49.590;11.030;2023-06-22T07:44:20;25.80;99.90
20398;DHT22;10358;49.590;11.030;2023-06-22T07:46:45;25.90;99.90
20398;DHT22;10358;49.590;11.030;2023-06-22T07:49:11;26.00;99.90
20398;DHT22;10358;49.590;11.030;2023-06-22T07:51:37;26.10;99.90
20398;DHT22;10358;49.590;11.030;2023-06-22T07:54:02;26.20;99.90
20398;DHT22;10358;49.590;11.030;2023-06-22T07:56:28;26.40;99.90
20398;DHT22;10358;49.590;11.030;2023-06-22T07:58:53;26.50;99.90
20398;DHT22;10358;49.590;11.030;2023-06-22T08:01:20;26.50;99.90
20398;DHT22;10358;49.590;11.030;2023-06-22T08:03:48;26.70;99.90
20398;DHT22;10358;49.590;11.030;2023-06-22T08:06:14;26.70;99.90
20398;DHT22;10358;49.590;11.030;2023-06-22T08:08:39;26.80;99.90
20398;DHT22;10358;49.590;11.030;2023-06-22T08:11:05;26.90;99.90
20398;DHT22;10358;49.590;11.030;2023-06-22T08:13:31;26.90;99.90
20398;DHT22;10358;49.590;11.030;2023-06-22T08:15:57;27.00;99.90
20398;DHT22;10358;49.590;11.030;2023-06-22T08:18:22;27.00;99.90
20398;DHT22;10358;49.590;11.030;2023-06-22T08:20:48;27.10;99.90
20398;DHT22;10358;49.590;11.030;2023-06-22T08:23:14;27.10;99.90
20398;DHT22;10358;49.590;11.030;2023-06-22T08:25:40;27.20;99.90
20398;DHT22;10358;49.590;11.030;2023-06-22T08:28:05;27.20;99.90
20398;DHT22;10358;49.590;11.030;2023-06-22T08:30:31;27.30;99.90
20398;DHT22;10358;49.590;11.030;2023-06-22T08:32:57;27.40;99.90
20398;DHT22;10358;49.590;11.030;2023-06-22T08:35:24;27.50;99.90
20398;DHT22;10358;49.590;11.030;2023-06-22T08:37:49;27.50;99.90
20398;DHT22;10358;49.590;11.030;2023-06-22T08:40:18;27.50;99.90
20398;DHT22;10358;49.590;11.030;2023-06-22T08:42:45;27.50;99.90
20398;DHT22;10358;49.590;11.030;2023-06-22T08:45:11;27.50;99.90
20398;DHT22;10358;49.590;11.030;2023-06-22T08:47:38;27.60;99.90
20398;DHT22;10358;49.590;11.030;2023-06-22T08:50:05;27.70;99.90
20398;DHT22;10358;49.590;11.030;2023-06-22T08:52:31;27.70;99.90
20398;DHT22;10358;49.590;11.030;2023-06-22T08:54:57;27.70;99.90
20398;DHT22;10358;49.590;11.030;2023-06-22T08:57:27;27.70;99.90
20398;DHT22;10358;49.590;11.030;2023-06-22T08:59:52;27.80;99.90
20398;DHT22;10358;49.590;11.030;2023-06-22T09:02:19;27.90;99.90
20398;DHT22;10358;49.590;11.030;2023-06-22T09:04:46;27.90;99.90
20398;DHT22;10358;49.590;11.030;2023-06-22T09:07:11;28.00;99.90
20398;DHT22;10358;49.590;11.030;2023-06-22T09:09:37;28.10;99.90
20398;DHT22;10358;49.590;11.030;2023-06-22T09:12:03;28.20;99.90
20398;DHT22;10358;49.590;11.030;2023-06-22T09:14:28;28.20;99.90
20398;DHT22;10358;49.590;11.030;2023-06-22T09:16:54;28.30;99.90
20398;DHT22;10358;49.590;11.030;2023-06-22T09:19:20;28.40;99.90
20398;DHT22;10358;49.590;11.030;2023-06-22T09:21:45;28.50;99.90
20398;DHT22;10358;49.590;11.030;2023-06-22T09:24:11;28.60;99.90
20398;DHT22;10358;49.590;11.030;2023-06-22T09:26:36;28.70;99.90
20398;DHT22;10358;49.590;11.030;2023-06-22T09:29:05;28.90;99.90
20398;DHT22;10358;49.590;11.030;2023-06-22T09:31:31;29.10;99.90
20398;DHT22;10358;49.590;11.030;2023-06-22T09:33:56;29.30;99.90
20398;DHT22;10358;49.590;11.030;2023-06-22T09:36:22;29.40;99.90
20398;DHT22;10358;49.590;11.030;2023-06-22T09:38:48;29.40;99.90
20398;DHT22;10358;49.590;11.030;2023-06-22T09:41:14;29.60;99.90
20398;DHT22;10358;49.590;11.030;2023-06-22T09:43:40;29.60;99.90
20398;DHT22;10358;49.590;11.030;2023-06-22T09:46:05;29.70;99.90
20398;DHT22;10358;49.590;11.030;2023-06-22T09:48:32;29.70;99.90
20398;DHT22;10358;49.590;11.030;2023-06-22T09:50:58;29.70;99.90
20398;DHT22;10358;49.590;11.030;2023-06-22T09:53:23;29.60;99.90
20398;DHT22;10358;49.590;11.030;2023-06-22T09:55:49;29.70;99.90
20398;DHT22;10358;49.590;11.030;2023-06-22T09:58:14;29.70;99.90
20398;DHT22;10358;49.590;11.030;2023-06-22T10:00:40;29.80;99.90
20398;DHT22;10358;49.590;11.030;2023-06-22T10:03:07;29.80;99.90
20398;DHT22;10358;49.590;11.030;2023-06-22T10:05:33;29.90;99.90
20398;DHT22;10358;49.590;11.030;2023-06-22T10:07:58;29.90;99.80
20398;DHT22;10358;49.590;11.030;2023-06-22T10:10:24;30.00;99.60
20398;DHT22;10358;49.590;11.030;2023-06-22T10:12:56;30.00;99.20
20398;DHT22;10358;49.590;11.030;2023-06-22T10:15:22;30.00;99.00
20398;DHT22;10358;49.590;11.030;2023-06-22T10:17:48;30.10;98.80
20398;DHT22;10358;49.590;11.030;2023-06-22T10:20:14;30.20;98.70
20398;DHT22;10358;49.590;11.030;2023-06-22T10:22:44;30.20;98.40
20398;DHT22;10358;49.590;11.030;2023-06-22T10:25:11;30.30;98.50
20398;DHT22;10358;49.590;11.030;2023-06-22T10:27:37;30.40;97.90
20398;DHT22;10358;49.590;11.030;2023-06-22T10:30:07;30.40;97.10
20398;DHT22;10358;49.590;11.030;2023-06-22T10:32:33;30.50;96.90
20398;DHT22;10358;49.590;11.030;2023-06-22T10:34:58;30.60;96.20
20398;DHT22;10358;49.590;11.030;2023-06-22T10:37:24;30.60;96.00
20398;DHT22;10358;49.590;11.030;2023-06-22T10:39:50;30.70;95.50
20398;DHT22;10358;49.590;11.030;2023-06-22T10:42:15;30.70;95.00
20398;DHT22;10358;49.590;11.030;2023-06-22T10:44:41;30.70;94.30
20398;DHT22;10358;49.590;11.030;2023-06-22T10:47:08;30.70;93.90
20398;DHT22;10358;49.590;11.030;2023-06-22T10:49:34;30.80;93.50
20398;DHT22;10358;49.590;11.030;2023-06-22T10:51:59;30.90;93.30
20398;DHT22;10358;49.590;11.030;2023-06-22T10:54:25;31.00;92.70
20398;DHT22;10358;49.590;11.030;2023-06-22T10:56:50;31.10;92.40
20398;DHT22;10358;49.590;11.030;2023-06-22T10:59:16;31.10;92.10
20398;DHT22;10358;49.590;11.030;2023-06-22T11:01:42;31.10;91.70
20398;DHT22;10358;49.590;11.030;2023-06-22T11:04:07;31.20;91.20
20398;DHT22;10358;49.590;11.030;2023-06-22T11:06:33;31.30;90.70
20398;DHT22;10358;49.590;11.030;2023-06-22T11:08:58;31.30;90.50
20398;DHT22;10358;49.590;11.030;2023-06-22T11:11:25;31.40;90.20
20398;DHT22;10358;49.590;11.030;2023-06-22T11:13:52;31.50;89.30
20398;DHT22;10358;49.590;11.030;2023-06-22T11:16:17;31.50;88.50
20398;DHT22;10358;49.590;11.030;2023-06-22T11:18:43;31.50;88.40
20398;DHT22;10358;49.590;11.030;2023-06-22T11:21:08;31.50;88.10
20398;DHT22;10358;49.590;11.030;2023-06-22T11:23:34;31.50;87.80
20398;DHT22;10358;49.590;11.030;2023-06-22T11:25:59;31.50;87.50
20398;DHT22;10358;49.590;11.030;2023-06-22T11:28:25;31.70;86.70
20398;DHT22;10358;49.590;11.030;2023-06-22T11:30:51;31.90;86.10
20398;DHT22;10358;49.590;11.030;2023-06-22T11:33:16;32.00;85.10
20398;DHT22;10358;49.590;11.030;2023-06-22T11:35:42;32.20;84.60
20398;DHT22;10358;49.590;11.030;2023-06-22T11:38:08;32.30;83.70
20398;DHT22;10358;49.590;11.030;2023-06-22T11:40:33;32.40;83.10
20398;DHT22;10358;49.590;11.030;2023-06-22T11:42:59;32.50;81.90
20398;DHT22;10358;49.590;11.030;2023-06-22T11:45:24;32.60;80.30
20398;DHT22;10358;49.590;11.030;2023-06-22T11:47:50;32.80;79.50
20398;DHT22;10358;49.590;11.030;2023-06-22T11:50:16;32.90;77.80
20398;DHT22;10358;49.590;11.030;2023-06-22T11:52:41;33.00;76.60
20398;DHT22;10358;49.590;11.030;2023-06-22T11:55:07;33.10;75.60
20398;DHT22;10358;49.590;11.030;2023-06-22T11:57:35;33.10;74.80
20398;DHT22;10358;49.590;11.030;2023-06-22T12:00:01;33.20;74.20
20398;DHT22;10358;49.590;11.030;2023-06-22T12:02:27;33.20;73.90
20398;DHT22;10358;49.590;11.030;2023-06-22T12:04:53;33.30;73.10
20398;DHT22;10358;49.590;11.030;2023-06-22T12:07:21;33.30;72.30
20398;DHT22;10358;49.590;11.030;2023-06-22T12:09:47;33.40;71.90
20398;DHT22;10358;49.590;11.030;2023-06-22T12:12:12;33.50;71.80
20398;DHT22;10358;49.590;11.030;2023-06-22T12:14:38;33.60;70.90
20398;DHT22;10358;49.590;11.030;2023-06-22T12:17:03;33.70;69.80
20398;DHT22;10358;49.590;11.030;2023-06-22T12:19:29;33.80;68.50
20398;DHT22;10358;49.590;11.030;2023-06-22T12:21:54;33.90;68.20
20398;DHT22;10358;49.590;11.030;2023-06-22T12:24:20;34.20;67.60
20398;DHT22;10358;49.590;11.030;2023-06-22T12:26:45;34.50;65.80
20398;DHT22;10358;49.590;11.030;2023-06-22T12:29:11;34.80;65.10
20398;DHT22;10358;49.590;11.030;2023-06-22T12:31:37;35.20;63.80
20398;DHT22;10358;49.590;11.030;2023-06-22T12:34:04;35.40;62.60
20398;DHT22;10358;49.590;11.030;2023-06-22T12:36:30;35.60;61.10
20398;DHT22;10358;49.590;11.030;2023-06-22T12:38:55;35.70;60.60
20398;DHT22;10358;49.590;11.030;2023-06-22T12:41:21;35.90;60.00
20398;DHT22;10358;49.590;11.030;2023-06-22T12:43:47;36.00;59.20
20398;DHT22;10358;49.590;11.030;2023-06-22T12:46:12;36.00;58.80
20398;DHT22;10358;49.590;11.030;2023-06-22T12:48:38;36.20;58.10
20398;DHT22;10358;49.590;11.030;2023-06-22T12:51:08;36.40;57.90
20398;DHT22;10358;49.590;11.030;2023-06-22T12:53:34;36.60;57.10
20398;DHT22;10358;49.590;11.030;2023-06-22T12:56:00;36.70;56.50
20398;DHT22;10358;49.590;11.030;2023-06-22T12:58:25;36.90;55.90
20398;DHT22;10358;49.590;11.030;2023-06-22T13:00:51;37.00;55.70
20398;DHT22;10358;49.590;11.030;2023-06-22T13:03:16;37.10;55.30
20398;DHT22;10358;49.590;11.030;2023-06-22T13:05:42;37.10;55.00
20398;DHT22;10358;49.590;11.030;2023-06-22T13:08:07;37.20;54.80
20398;DHT22;10358;49.590;11.030;2023-06-22T13:10:33;37.20;54.70
20398;DHT22;10358;49.590;11.030;2023-06-22T13:12:59;37.10;54.20
20398;DHT22;10358;49.590;11.030;2023-06-22T13:15:27;37.20;53.60
20398;DHT22;10358;49.590;11.030;2023-06-22T13:17:53;37.10;53.40
20398;DHT22;10358;49.590;11.030;2023-06-22T13:20:19;37.10;53.40
20398;DHT22;10358;49.590;11.030;2023-06-22T13:22:44;37.30;53.40
20398;DHT22;10358;49.590;11.030;2023-06-22T13:25:10;37.40;53.10
20398;DHT22;10358;49.590;11.030;2023-06-22T13:27:39;37.60;53.00
20398;DHT22;10358;49.590;11.030;2023-06-22T13:30:05;37.80;52.80
20398;DHT22;10358;49.590;11.030;2023-06-22T13:32:30;37.90;52.40
20398;DHT22;10358;49.590;11.030;2023-06-22T13:34:56;38.10;51.80
20398;DHT22;10358;49.590;11.030;2023-06-22T13:37:21;38.40;51.70
20398;DHT22;10358;49.590;11.030;2023-06-22T13:39:47;38.70;51.10
20398;DHT22;10358;49.590;11.030;2023-06-22T13:42:12;38.70;50.20
20398;DHT22;10358;49.590;11.030;2023-06-22T13:44:38;38.60;49.30
20398;DHT22;10358;49.590;11.030;2023-06-22T13:47:04;38.40;48.70
20398;DHT22;10358;49.590;11.030;2023-06-22T13:49:30;38.20;48.40
20398;DHT22;10358;49.590;11.030;2023-06-22T13:51:56;38.00;48.40
20398;DHT22;10358;49.590;11.030;2023-06-22T13:54:21;37.90;48.30
20398;DHT22;10358;49.590;11.030;2023-06-22T13:56:47;37.60;48.50
20398;DHT22;10358;49.590;11.030;2023-06-22T13:59:12;37.40;48.90
20398;DHT22;10358;49.590;11.030;2023-06-22T14:01:38;37.50;49.80
20398;DHT22;10358;49.590;11.030;2023-06-22T14:04:05;37.50;49.20
20398;DHT22;10358;49.590;11.030;2023-06-22T14:06:31;37.40;49.30
20398;DHT22;10358;49.590;11.030;2023-06-22T14:08:56;37.30;49.30
20398;DHT22;10358;49.590;11.030;2023-06-22T14:11:22;37.20;49.40
20398;DHT22;10358;49.590;11.030;2023-06-22T14:13:47;37.20;49.20
20398;DHT22;10358;49.590;11.030;2023-06-22T14:16:13;37.60;48.10
20398;DHT22;10358;49.590;11.030;2023-06-22T14:18:39;38.40;50.00
20398;DHT22;10358;49.590;11.030;2023-06-22T14:21:04;39.10;46.60
20398;DHT22;10358;49.590;11.030;2023-06-22T14:23:30;39.30;46.20
20398;DHT22;10358;49.590;11.030;2023-06-22T14:25:55;39.40;46.00
20398;DHT22;10358;49.590;11.030;2023-06-22T14:28:21;39.50;46.00
20398;DHT22;10358;49.590;11.030;2023-06-22T14:30:47;39.60;46.00
20398;DHT22;10358;49.590;11.030;2023-06-22T14:33:13;39.50;45.90
20398;DHT22;10358;49.590;11.030;2023-06-22T14:35:38;39.60;45.20
20398;DHT22;10358;49.590;11.030;2023-06-22T14:38:04;39.80;45.00
20398;DHT22;10358;49.590;11.030;2023-06-22T14:40:29;39.80;45.30
20398;DHT22;10358;49.590;11.030;2023-06-22T14:42:55;40.10;44.30
20398;DHT22;10358;49.590;11.030;2023-06-22T14:45:22;40.60;42.60
20398;DHT22;10358;49.590;11.030;2023-06-22T14:47:48;41.20;42.10
20398;DHT22;10358;49.590;11.030;2023-06-22T14:50:13;41.20;42.60
20398;DHT22;10358;49.590;11.030;2023-06-22T14:52:39;41.20;42.10
20398;DHT22;10358;49.590;11.030;2023-06-22T14:55:05;40.80;42.20
20398;DHT22;10358;49.590;11.030;2023-06-22T14:57:31;40.30;42.10
20398;DHT22;10358;49.590;11.030;2023-06-22T14:59:56;40.00;42.50
20398;DHT22;10358;49.590;11.030;2023-06-22T15:02:22;40.10;42.30
20398;DHT22;10358;49.590;11.030;2023-06-22T15:04:48;40.70;42.00
20398;DHT22;10358;49.590;11.030;2023-06-22T15:07:14;41.30;41.50
20398;DHT22;10358;49.590;11.030;2023-06-22T15:09:39;41.90;40.30
20398;DHT22;10358;49.590;11.030;2023-06-22T15:14:40;42.80;38.70
20398;DHT22;10358;49.590;11.030;2023-06-22T15:17:06;43.40;51.30
20398;DHT22;10358;49.590;11.030;2023-06-22T15:19:37;43.60;37.90
20398;DHT22;10358;49.590;11.030;2023-06-22T15:22:06;43.50;37.00